createdAt,value
2023-03-04T00:00:52.382Z,98497.38
2023-03-04T00:03:19.084Z,98485.44
2023-03-04T00:05:47.197Z,98489.00
2023-03-04T00:08:13.697Z,98487.00
2023-03-04T00:10:40.194Z,98481.31
2023-03-04T00:13:06.673Z,98487.78
2023-03-04T00:15:33.184Z,98491.56
2023-03-04T00:17:59.617Z,98490.72
2023-03-04T00:20:29.137Z,98487.78
2023-03-04T00:22:58.584Z,98494.56
2023-03-04T00:25:27.170Z,98479.41
2023-03-04T00:27:53.729Z,98482.19
2023-03-04T00:30:20.298Z,98480.94
2023-03-04T00:32:46.813Z,98482.53
2023-03-04T00:35:13.280Z,98488.72
2023-03-04T00:37:39.737Z,98492.09
2023-03-04T00:40:06.708Z,98495.31
2023-03-04T00:42:33.224Z,98484.47
2023-03-04T00:44:59.665Z,98489.81
2023-03-04T00:47:27.093Z,98478.13
2023-03-04T00:49:53.571Z,98488.72
2023-03-04T00:52:19.993Z,98491.63
2023-03-04T00:54:46.533Z,98473.97
2023-03-04T00:57:13.034Z,98473.94
2023-03-04T00:59:40.785Z,98484.91
2023-03-04T01:02:07.338Z,98477.78
2023-03-04T01:04:33.798Z,98474.66
2023-03-04T01:07:00.331Z,98472.97
2023-03-04T01:09:29.151Z,98470.63
2023-03-04T01:11:55.613Z,98463.72
2023-03-04T01:14:22.064Z,98465.94
2023-03-04T01:16:49.387Z,98479.19
2023-03-04T01:19:16.520Z,98476.78
2023-03-04T01:21:43.025Z,98462.72
2023-03-04T01:24:09.497Z,98483.03
2023-03-04T01:26:35.964Z,98472.78
2023-03-04T01:29:03.441Z,98461.19
2023-03-04T01:31:33.329Z,98465.25
2023-03-04T01:34:03.323Z,98456.91
2023-03-04T01:36:31.557Z,98464.16
2023-03-04T01:39:00.215Z,98437.34
2023-03-04T01:41:27.304Z,98463.81
2023-03-04T01:44:01.475Z,98457.69
2023-03-04T01:46:30.062Z,98444.94
2023-03-04T01:48:57.052Z,98453.53
2023-03-04T01:51:23.888Z,98456.75
2023-03-04T01:53:53.360Z,98457.19
2023-03-04T01:56:24.546Z,98459.47
2023-03-04T01:59:11.468Z,98446.34
2023-03-04T02:01:39.271Z,98450.28
2023-03-04T02:04:07.855Z,98451.28
2023-03-04T02:06:36.276Z,98437.59
2023-03-04T02:09:07.302Z,98448.06
2023-03-04T02:11:36.553Z,98437.56
2023-03-04T02:14:06.839Z,98444.06
2023-03-04T02:16:36.405Z,98442.16
2023-03-04T02:19:44.224Z,98420.81
2023-03-04T02:22:10.824Z,98441.28
2023-03-04T02:24:48.012Z,98433.53
2023-03-04T02:27:14.551Z,98440.22
2023-03-04T02:29:41.117Z,98431.66
2023-03-04T02:32:11.409Z,98434.38
2023-03-04T02:34:47.564Z,98435.47
2023-03-04T02:37:14.444Z,98430.22
2023-03-04T02:39:43.706Z,98431.66
2023-03-04T02:42:10.813Z,98427.56
2023-03-04T02:44:40.215Z,98430.88
2023-03-04T02:47:10.136Z,98418.69
2023-03-04T02:49:38.978Z,98428.00
2023-03-04T02:52:19.588Z,98424.09
2023-03-04T02:54:46.446Z,98419.41
2023-03-04T02:57:14.881Z,98410.63
2023-03-04T02:59:42.363Z,98428.13
2023-03-04T03:02:10.201Z,98426.66
2023-03-04T03:04:38.534Z,98398.16
2023-03-04T03:07:07.070Z,98422.22
2023-03-04T03:09:36.656Z,98432.28
2023-03-04T03:12:03.275Z,98421.78
2023-03-04T03:14:29.821Z,98409.84
2023-03-04T03:16:56.282Z,98416.56
2023-03-04T03:19:22.738Z,98434.72
2023-03-04T03:21:50.233Z,98424.44
2023-03-04T03:24:16.782Z,98428.56
2023-03-04T03:26:43.304Z,98421.63
2023-03-04T03:29:09.814Z,98426.72
2023-03-04T03:31:39.381Z,98410.78
2023-03-04T03:34:07.053Z,98401.69
2023-03-04T03:36:33.554Z,98401.81
2023-03-04T03:39:00.060Z,98416.81
2023-03-04T03:41:26.542Z,98407.00
2023-03-04T03:43:53.019Z,98412.84
2023-03-04T03:46:19.486Z,98407.47
2023-03-04T03:48:45.987Z,98423.69
2023-03-04T03:51:12.462Z,98421.25
2023-03-04T03:53:41.583Z,98418.53
2023-03-04T03:56:11.194Z,98427.44
2023-03-04T03:58:40.669Z,98419.72
2023-03-04T04:01:09.218Z,98411.50
2023-03-04T04:03:35.869Z,98412.91
2023-03-04T04:06:02.403Z,98417.41
2023-03-04T04:08:29.003Z,98413.63
2023-03-04T04:10:55.446Z,98421.50
2023-03-04T04:13:21.888Z,98409.94
2023-03-04T04:15:48.308Z,98411.97
2023-03-04T04:18:14.738Z,98417.59
2023-03-04T04:20:41.299Z,98416.69
2023-03-04T04:23:10.608Z,98423.63
2023-03-04T04:25:37.146Z,98423.78
2023-03-04T04:28:03.997Z,98425.81
2023-03-04T04:30:30.474Z,98418.28
2023-03-04T04:32:57.040Z,98421.88
2023-03-04T04:35:23.651Z,98407.31
2023-03-04T04:37:50.166Z,98425.47
2023-03-04T04:40:16.892Z,98417.38
2023-03-04T04:42:43.398Z,98422.97
2023-03-04T04:45:13.194Z,98412.44
2023-03-04T04:47:40.022Z,98406.28
2023-03-04T04:50:07.126Z,98389.84
2023-03-04T04:52:33.677Z,98428.25
2023-03-04T04:55:00.163Z,98409.03
2023-03-04T04:57:26.653Z,98423.72
2023-03-04T04:59:53.221Z,98412.91
2023-03-04T05:02:19.870Z,98430.53
2023-03-04T05:04:46.523Z,98417.75
2023-03-04T05:07:13.048Z,98384.50
2023-03-04T05:09:41.772Z,98412.31
2023-03-04T05:12:08.221Z,98421.25
2023-03-04T05:14:34.728Z,98414.81
2023-03-04T05:17:01.231Z,98427.22
2023-03-04T05:19:27.689Z,98419.47
2023-03-04T05:21:54.304Z,98412.22
2023-03-04T05:24:20.899Z,98436.56
2023-03-04T05:26:47.669Z,98426.75
2023-03-04T05:29:14.152Z,98422.25
2023-03-04T05:31:40.600Z,98427.59
2023-03-04T05:34:07.437Z,98431.91
2023-03-04T05:36:33.939Z,98443.44
2023-03-04T05:39:00.452Z,98417.72
2023-03-04T05:41:27.034Z,98441.81
2023-03-04T05:43:53.594Z,98425.47
2023-03-04T05:46:26.218Z,98430.34
2023-03-04T05:48:54.132Z,98446.31
2023-03-04T05:51:21.473Z,98439.41
2023-03-04T05:53:49.143Z,98444.91
2023-03-04T05:56:18.344Z,98418.56
2023-03-04T05:58:48.039Z,98438.34
2023-03-04T06:01:17.492Z,98449.44
2023-03-04T06:03:49.211Z,98449.09
2023-03-04T06:06:15.916Z,98445.28
2023-03-04T06:08:44.477Z,98418.47
2023-03-04T06:11:10.930Z,98452.56
2023-03-04T06:13:38.258Z,98464.88
2023-03-04T06:16:05.402Z,98455.91
2023-03-04T06:18:31.911Z,98464.38
2023-03-04T06:21:00.175Z,98468.59
2023-03-04T06:23:27.763Z,98474.19
2023-03-04T06:25:56.177Z,98475.03
2023-03-04T06:28:23.339Z,98482.53
2023-03-04T06:30:53.030Z,98472.66
2023-03-04T06:33:19.785Z,98472.41
2023-03-04T06:35:46.406Z,98475.38
2023-03-04T06:38:15.989Z,98485.28
2023-03-04T06:40:45.995Z,98490.88
2023-03-04T06:43:16.464Z,98487.91
2023-03-04T06:45:45.739Z,98489.81
2023-03-04T06:48:15.664Z,98482.91
2023-03-04T06:50:46.091Z,98500.44
2023-03-04T06:53:16.411Z,98492.91
2023-03-04T06:55:47.250Z,98489.56
2023-03-04T06:58:20.649Z,98457.59
2023-03-04T07:00:47.158Z,98478.09
2023-03-04T07:03:17.873Z,98497.75
2023-03-04T07:05:45.099Z,98496.81
2023-03-04T07:08:14.142Z,98509.59
2023-03-04T07:10:40.995Z,98517.22
2023-03-04T07:13:07.522Z,98509.59
2023-03-04T07:15:34.025Z,98504.53
2023-03-04T07:18:00.484Z,98519.19
2023-03-04T07:20:27.002Z,98520.78
2023-03-04T07:22:53.544Z,98519.22
2023-03-04T07:25:20.184Z,98528.50
2023-03-04T07:27:46.670Z,98521.81
2023-03-04T07:30:17.000Z,98502.50
2023-03-04T07:32:46.642Z,98533.84
2023-03-04T07:35:15.936Z,98537.88
2023-03-04T07:37:47.149Z,98546.22
2023-03-04T07:40:16.601Z,98515.53
2023-03-04T07:42:49.901Z,98513.13
2023-03-04T07:45:16.431Z,98526.09
2023-03-04T07:47:46.193Z,98520.25
2023-03-04T07:50:18.123Z,98523.41
2023-03-04T07:52:50.884Z,98535.09
2023-03-04T07:55:18.185Z,98538.34
2023-03-04T07:57:47.486Z,98519.56
2023-03-04T08:00:17.831Z,98540.06
2023-03-04T08:02:47.902Z,98526.53
2023-03-04T08:05:15.476Z,98531.81
2023-03-04T08:07:43.762Z,98541.66
2023-03-04T08:10:10.996Z,98535.00
2023-03-04T08:12:37.431Z,98524.53
2023-03-04T08:15:04.208Z,98529.66
2023-03-04T08:17:30.789Z,98562.28
2023-03-04T08:19:57.325Z,98543.59
2023-03-04T08:22:23.799Z,98538.53
2023-03-04T08:24:50.350Z,98552.13
2023-03-04T08:27:16.894Z,98557.97
2023-03-04T08:29:46.438Z,98551.81
2023-03-04T08:32:15.833Z,98562.94
2023-03-04T08:34:44.706Z,98547.09
2023-03-04T08:37:11.267Z,98554.34
2023-03-04T08:39:37.789Z,98569.13
2023-03-04T08:42:04.241Z,98560.19
2023-03-04T08:44:30.766Z,98555.53
2023-03-04T08:46:57.409Z,98572.78
2023-03-04T08:49:23.934Z,98563.81
2023-03-04T08:51:50.394Z,98570.63
2023-03-04T08:54:17.032Z,98556.34
2023-03-04T08:56:46.346Z,98558.31
2023-03-04T08:59:15.687Z,98559.25
2023-03-04T09:01:44.386Z,98562.16
2023-03-04T09:04:10.951Z,98566.09
2023-03-04T09:06:37.471Z,98567.06
2023-03-04T09:09:04.448Z,98576.69
2023-03-04T09:11:31.688Z,98566.03
2023-03-04T09:13:58.255Z,98567.44
2023-03-04T09:16:24.840Z,98568.00
2023-03-04T09:18:51.521Z,98561.94
2023-03-04T09:21:18.101Z,98560.81
2023-03-04T09:23:47.599Z,98566.94
2023-03-04T09:26:26.832Z,98562.38
2023-03-04T09:28:55.530Z,98574.47
2023-03-04T09:31:22.272Z,98544.00
2023-03-04T09:33:49.002Z,98544.03
2023-03-04T09:36:15.985Z,98548.88
2023-03-04T09:38:43.930Z,98529.53
2023-03-04T09:41:24.278Z,98558.06
2023-03-04T09:43:52.446Z,98554.97
2023-03-04T09:46:27.503Z,98566.75
2023-03-04T09:48:55.813Z,98546.19
2023-03-04T09:51:25.426Z,98568.97
2023-03-04T09:54:11.165Z,98557.16
2023-03-04T09:56:39.878Z,98559.34
2023-03-04T09:59:40.903Z,98541.31
2023-03-04T10:02:22.856Z,98546.13
2023-03-04T10:04:53.201Z,98543.28
2023-03-04T10:07:34.421Z,98547.88
2023-03-04T10:10:04.961Z,98558.25
2023-03-04T10:12:35.711Z,98553.13
2023-03-04T10:15:06.479Z,98540.09
2023-03-04T10:17:38.083Z,98551.13
2023-03-04T10:20:14.493Z,98559.31
2023-03-04T10:22:49.548Z,98547.84
2023-03-04T10:25:21.894Z,98554.09
2023-03-04T10:28:03.159Z,98539.88
2023-03-04T10:30:32.637Z,98546.41
2023-03-04T10:32:59.604Z,98535.94
2023-03-04T10:35:33.413Z,98525.31
2023-03-04T10:38:03.488Z,98538.03
2023-03-04T10:40:38.070Z,98532.50
2023-03-04T10:43:14.828Z,98524.38
2023-03-04T10:45:44.980Z,98529.00
2023-03-04T10:48:29.220Z,98530.50
2023-03-04T10:51:24.227Z,98525.03
2023-03-04T10:53:58.207Z,98514.16
2023-03-04T10:56:31.960Z,98522.91
2023-03-04T10:59:53.823Z,98521.19
2023-03-04T11:02:30.810Z,98521.31
2023-03-04T11:05:17.840Z,98516.22
2023-03-04T11:07:57.538Z,98517.19
2023-03-04T11:10:31.766Z,98513.22
2023-03-04T11:13:15.041Z,98506.13
2023-03-04T11:15:58.446Z,98503.59
2023-03-04T11:18:40.467Z,98502.28
2023-03-04T11:21:14.695Z,98491.88
2023-03-04T11:24:03.256Z,98495.00
2023-03-04T11:26:45.379Z,98482.31
2023-03-04T11:29:18.283Z,98500.94
2023-03-04T11:32:12.669Z,98481.97
2023-03-04T11:34:54.407Z,98477.63
2023-03-04T11:37:45.907Z,98464.88
2023-03-04T11:40:24.208Z,98461.97
2023-03-04T11:43:00.753Z,98452.66
2023-03-04T11:45:37.225Z,98459.41
2023-03-04T11:48:24.741Z,98458.22
2023-03-04T11:50:57.796Z,98454.25
2023-03-04T11:53:56.067Z,98443.44
2023-03-04T11:56:31.861Z,98439.19
2023-03-04T11:59:10.353Z,98431.94
2023-03-04T12:01:59.414Z,98434.13
2023-03-04T12:05:03.711Z,98434.22
2023-03-04T12:07:51.305Z,98426.56
2023-03-04T12:10:20.785Z,98422.50
2023-03-04T12:13:11.480Z,98421.97
2023-03-04T12:15:46.508Z,98416.78
2023-03-04T12:18:40.969Z,98415.19
2023-03-04T12:21:19.543Z,98416.25
2023-03-04T12:23:48.897Z,98411.16
2023-03-04T12:26:30.474Z,98404.59
2023-03-04T12:29:33.545Z,98400.78
2023-03-04T12:32:21.539Z,98400.16
2023-03-04T12:35:19.549Z,98392.66
2023-03-04T12:38:00.521Z,98379.84
2023-03-04T12:40:49.046Z,98377.28
2023-03-04T12:43:39.332Z,98383.25
2023-03-04T12:46:08.643Z,98381.88
2023-03-04T12:48:46.295Z,98362.16
2023-03-04T12:51:23.017Z,98374.69
2023-03-04T12:54:03.265Z,98366.97
2023-03-04T12:56:32.750Z,98370.66
2023-03-04T12:59:00.591Z,98359.97
2023-03-04T13:01:39.652Z,98366.06
2023-03-04T13:04:34.065Z,98361.66
2023-03-04T13:07:36.597Z,98364.78
2023-03-04T13:10:16.651Z,98353.59
2023-03-04T13:12:52.413Z,98344.31
2023-03-04T13:15:32.905Z,98344.22
2023-03-04T13:18:21.820Z,98326.22
2023-03-04T13:21:23.792Z,98329.50
2023-03-04T13:23:51.766Z,98320.78
2023-03-04T13:26:18.827Z,98332.88
2023-03-04T13:28:54.668Z,98327.59
2023-03-04T13:31:27.212Z,98329.44
2023-03-04T13:33:56.761Z,98338.31
2023-03-04T13:36:34.755Z,98331.81
2023-03-04T13:39:23.545Z,98348.53
2023-03-04T13:41:53.645Z,98337.41
2023-03-04T13:44:45.454Z,98330.13
2023-03-04T13:47:21.575Z,98323.06
2023-03-04T13:49:48.621Z,98310.56
2023-03-04T13:52:43.662Z,98344.00
2023-03-04T13:55:34.993Z,98336.72
2023-03-04T13:58:14.309Z,98345.22
2023-03-04T14:00:48.755Z,98323.56
2023-03-04T14:03:22.662Z,98337.88
2023-03-04T14:06:15.971Z,98333.16
2023-03-04T14:08:46.750Z,98323.97
2023-03-04T14:11:24.773Z,98325.28
2023-03-04T14:13:52.420Z,98319.22
2023-03-04T14:16:25.892Z,98323.13
2023-03-04T14:19:01.218Z,98326.63
2023-03-04T14:21:28.711Z,98305.28
2023-03-04T14:24:23.524Z,98326.03
2023-03-04T14:26:50.629Z,98325.47
2023-03-04T14:29:26.367Z,98317.56
2023-03-04T14:31:54.439Z,98305.50
2023-03-04T14:34:37.809Z,98295.31
2023-03-04T14:37:20.717Z,98288.00
2023-03-04T14:39:53.537Z,98322.22
2023-03-04T14:42:23.606Z,98298.28
2023-03-04T14:44:51.217Z,98314.84
2023-03-04T14:47:24.484Z,98296.03
2023-03-04T14:49:51.449Z,98318.41
2023-03-04T14:52:32.858Z,98319.09
2023-03-04T14:55:17.836Z,98301.69
2023-03-04T14:57:48.186Z,98310.38
2023-03-04T15:00:26.049Z,98314.03
2023-03-04T15:03:19.815Z,98300.50
2023-03-04T15:05:47.851Z,98295.25
2023-03-04T15:08:36.049Z,98294.72
2023-03-04T15:11:05.570Z,98308.41
2023-03-04T15:13:49.908Z,98301.53
2023-03-04T15:16:19.593Z,98291.13
2023-03-04T15:18:57.953Z,98297.75
2023-03-04T15:21:28.369Z,98285.94
2023-03-04T15:23:54.841Z,98273.97
2023-03-04T15:26:21.370Z,98287.06
2023-03-04T15:28:47.911Z,98264.06
2023-03-04T15:31:22.553Z,98286.69
2023-03-04T15:33:49.250Z,98281.72
2023-03-04T15:36:23.348Z,98269.88
2023-03-04T15:39:31.391Z,98286.47
2023-03-04T15:42:12.427Z,98281.22
2023-03-04T15:44:39.338Z,98276.16
2023-03-04T15:47:08.778Z,98265.97
2023-03-04T15:49:35.818Z,98244.22
2023-03-04T15:52:06.146Z,98261.88
2023-03-04T15:54:35.755Z,98265.81
2023-03-04T16:07:50.931Z,98225.16
2023-03-04T16:10:20.617Z,98269.22
2023-03-04T16:12:51.935Z,98229.59
2023-03-04T16:15:51.789Z,98250.63
2023-03-04T16:18:18.337Z,98274.84
2023-03-04T16:20:50.353Z,98264.72
2023-03-04T16:23:20.902Z,98261.97
2023-03-04T16:25:49.676Z,98267.59
2023-03-04T16:28:18.905Z,98261.88
2023-03-04T16:30:45.544Z,98273.16
2023-03-04T16:33:12.079Z,98267.41
2023-03-04T16:35:39.667Z,98270.78
2023-03-04T16:38:18.957Z,98262.53
2023-03-04T16:40:45.381Z,98276.47
2023-03-04T16:43:14.133Z,98272.16
2023-03-04T16:45:41.270Z,98271.50
2023-03-04T16:48:07.732Z,98275.28
2023-03-04T16:50:36.351Z,98271.66
2023-03-04T16:53:04.488Z,98272.13
2023-03-04T16:55:31.450Z,98276.44
2023-03-04T16:57:58.299Z,98271.78
2023-03-04T17:00:27.998Z,98279.69
2023-03-04T17:02:57.939Z,98276.69
2023-03-04T17:05:26.886Z,98282.72
2023-03-04T17:07:53.610Z,98288.25
2023-03-04T17:10:24.013Z,98271.59
2023-03-04T17:12:54.216Z,98279.81
2023-03-04T17:15:24.220Z,98281.06
2023-03-04T17:17:56.815Z,98286.94
2023-03-04T17:20:23.373Z,98274.13
2023-03-04T17:22:53.629Z,98287.78
2023-03-04T17:25:23.262Z,98293.47
2023-03-04T17:27:51.776Z,98290.47
2023-03-04T17:34:56.473Z,98307.97
2023-03-04T17:37:54.921Z,98309.56
2023-03-04T17:41:36.224Z,98319.19
2023-03-04T17:44:03.132Z,98309.16
2023-03-04T17:46:29.807Z,98321.47
2023-03-04T17:48:59.139Z,98318.50
2023-03-04T17:51:31.032Z,98320.53
2023-03-04T17:53:57.656Z,98321.59
2023-03-04T17:56:29.955Z,98280.72
2023-03-04T17:59:01.135Z,98335.94
2023-03-04T18:01:28.162Z,98346.16
2023-03-04T18:03:55.030Z,98322.22
2023-03-04T18:06:30.689Z,98337.63
2023-03-04T18:08:57.177Z,98344.75
2023-03-04T18:11:26.172Z,98347.84
2023-03-04T18:14:01.135Z,98343.94
2023-03-04T18:16:29.665Z,98348.22
2023-03-04T18:18:58.518Z,98354.19
2023-03-04T18:21:26.824Z,98337.03
2023-03-04T18:23:53.896Z,98355.34
2023-03-04T18:26:23.770Z,98362.00
2023-03-04T18:28:55.532Z,98364.53
2023-03-04T18:31:25.764Z,98349.13
2023-03-04T18:33:52.994Z,98361.34
2023-03-04T18:36:22.699Z,98333.75
2023-03-04T18:38:51.422Z,98347.75
2023-03-04T18:41:18.273Z,98354.00
2023-03-04T18:43:45.256Z,98354.69
2023-03-04T18:46:22.887Z,98368.28
2023-03-04T18:48:56.391Z,98367.44
2023-03-04T18:51:23.264Z,98359.28
2023-03-04T18:54:55.840Z,98326.25
2023-03-04T18:57:25.944Z,98305.75
2023-03-04T18:59:58.579Z,98344.56
2023-03-04T19:07:23.436Z,98338.47
2023-03-04T19:13:24.066Z,98308.91
2023-03-04T19:19:11.203Z,98314.84
2023-03-04T19:21:38.866Z,98332.88
2023-03-04T19:24:05.897Z,98353.09
2023-03-04T19:26:32.824Z,98362.69
2023-03-04T19:28:59.448Z,98365.81
2023-03-04T19:31:25.912Z,98372.91
2023-03-04T19:33:55.211Z,98362.78
2023-03-04T19:36:23.060Z,98365.53
2023-03-04T19:38:49.552Z,98353.56
2023-03-04T19:41:17.539Z,98356.34
2023-03-04T19:43:45.893Z,98375.91
2023-03-04T19:46:13.721Z,98364.66
2023-03-04T19:48:40.826Z,98368.94
2023-03-04T19:51:20.505Z,98372.81
2023-03-04T19:53:47.045Z,98364.63
2023-03-04T19:56:13.489Z,98358.22
2023-03-04T19:58:40.125Z,98368.47
2023-03-04T20:01:06.647Z,98370.03
2023-03-04T20:03:36.005Z,98369.47
2023-03-04T20:06:05.092Z,98351.66
2023-03-04T20:08:31.670Z,98357.50
2023-03-04T20:10:58.292Z,98364.72
2023-03-04T20:13:24.829Z,98340.06
2023-03-04T20:15:51.296Z,98351.88
2023-03-04T20:18:17.779Z,98350.28
2023-03-04T20:20:44.305Z,98364.25
2023-03-04T20:23:10.864Z,98365.06
2023-03-04T20:25:37.354Z,98375.09
2023-03-04T20:28:03.995Z,98373.81
2023-03-04T20:30:30.469Z,98368.69
2023-03-04T20:32:56.955Z,98379.44
2023-03-04T20:35:27.393Z,98385.06
2023-03-04T20:37:56.694Z,98375.34
2023-03-04T20:40:26.154Z,98386.28
2023-03-04T20:42:55.751Z,98389.91
2023-03-04T20:45:25.491Z,98385.38
2023-03-04T20:47:54.270Z,98396.34
2023-03-04T20:50:20.869Z,98404.34
2023-03-04T20:52:48.185Z,98392.41
2023-03-04T20:55:14.698Z,98404.75
2023-03-04T20:57:41.189Z,98403.34
2023-03-04T21:00:10.541Z,98404.16
2023-03-04T21:02:37.040Z,98383.13
2023-03-04T21:05:03.909Z,98397.06
2023-03-04T21:07:30.579Z,98409.75
2023-03-04T21:09:57.049Z,98406.28
2023-03-04T21:12:26.793Z,98408.69
2023-03-04T21:14:56.349Z,98404.16
2023-03-04T21:17:26.042Z,98412.63
2023-03-04T21:19:56.009Z,98404.91
2023-03-04T21:22:25.670Z,98404.19
2023-03-04T21:24:54.209Z,98403.47
2023-03-04T21:27:20.741Z,98413.72
2023-03-04T21:29:49.368Z,98415.13
2023-03-04T21:32:25.164Z,98412.38
2023-03-04T21:34:55.925Z,98407.97
2023-03-04T21:37:26.231Z,98404.03
2023-03-04T21:39:58.046Z,98403.03
2023-03-04T21:42:28.077Z,98412.13
2023-03-04T21:44:57.644Z,98410.19
2023-03-04T21:47:27.907Z,98404.00
2023-03-04T21:49:57.681Z,98401.97
2023-03-04T21:52:28.368Z,98406.75
2023-03-04T21:54:58.449Z,98402.59
2023-03-04T21:57:28.383Z,98386.34
2023-03-04T21:59:58.730Z,98408.66
2023-03-04T22:02:28.051Z,98396.81
2023-03-04T22:04:56.647Z,98402.56
2023-03-04T22:07:23.184Z,98398.63
2023-03-04T22:09:49.986Z,98400.31
2023-03-04T22:12:18.427Z,98396.72
2023-03-04T22:14:46.064Z,98393.69
2023-03-04T22:17:12.943Z,98391.75
2023-03-04T22:19:39.544Z,98397.31
2023-03-04T22:22:06.497Z,98396.31
2023-03-04T22:24:33.021Z,98397.25
2023-03-04T22:26:59.984Z,98395.41
2023-03-04T22:29:29.536Z,98397.72
2023-03-04T22:32:00.789Z,98404.44
2023-03-04T22:34:28.101Z,98396.59
2023-03-04T22:36:54.581Z,98386.06
2023-03-04T22:39:22.861Z,98400.44
2023-03-04T22:41:49.309Z,98408.81
2023-03-04T22:44:16.025Z,98406.59
2023-03-04T22:46:43.589Z,98397.75
2023-03-04T22:49:12.656Z,98389.91
2023-03-04T22:51:41.684Z,98395.09
2023-03-04T22:54:10.700Z,98390.28
2023-03-04T22:56:37.800Z,98396.59
2023-03-04T22:59:04.353Z,98396.69
2023-03-04T23:01:31.120Z,98387.50
2023-03-04T23:03:59.670Z,98400.03
2023-03-04T23:06:30.182Z,98392.97
2023-03-04T23:09:02.020Z,98401.81
2023-03-04T23:11:35.233Z,98399.53
2023-03-04T23:14:06.246Z,98399.41
2023-03-04T23:16:36.777Z,98401.03
2023-03-04T23:19:05.640Z,98405.78
2023-03-04T23:21:34.966Z,98403.16
2023-03-04T23:24:03.418Z,98397.44
2023-03-04T23:26:35.932Z,98394.22
2023-03-04T23:29:04.344Z,98402.91
2023-03-04T23:31:32.333Z,98393.59
2023-03-04T23:34:02.646Z,98392.97
2023-03-04T23:36:35.171Z,98394.44
2023-03-04T23:39:02.620Z,98393.19
2023-03-04T23:41:31.141Z,98387.84
2023-03-04T23:44:01.666Z,98381.91
2023-03-04T23:46:29.200Z,98374.16
2023-03-04T23:48:56.825Z,98375.00
2023-03-04T23:51:27.421Z,98374.16
2023-03-04T23:53:54.719Z,98373.44
2023-03-04T23:56:23.805Z,98372.50
2023-03-04T23:58:50.785Z,98383.16
